sensor_id;sensor_type;location;lat;lon;timestamp;pressure;altitude;pressure_sealevel;temperature;humidity
83488;BME280;73424;49.994;8.184;2024-03-23T00:55:35;99171.22;;;8.66;83.01
83488;BME280;73424;49.994;8.184;2024-03-23T00:58:00;99155.91;;;8.61;83.39
83488;BME280;73424;49.994;8.184;2024-03-23T01:00:26;99171.84;;;8.55;84.23
83488;BME280;73424;49.994;8.184;2024-03-23T01:02:51;99149.59;;;8.43;84.18
83488;BME280;73424;49.994;8.184;2024-03-23T01:05:16;99117.91;;;8.35;83.94
83488;BME280;73424;49.994;8.184;2024-03-23T01:07:41;99136.28;;;8.49;83.42
83488;BME280;73424;49.994;8.184;2024-03-23T01:10:07;99143.38;;;8.68;83.81
83488;BME280;73424;49.994;8.184;2024-03-23T01:12:32;99133.16;;;8.65;82.84
83488;BME280;73424;49.994;8.184;2024-03-23T01:14:58;99137.47;;;8.60;82.91
83488;BME280;73424;49.994;8.184;2024-03-23T01:17:23;99123.41;;;8.46;83.18
83488;BME280;73424;49.994;8.184;2024-03-23T01:19:48;99113.72;;;8.71;82.40
83488;BME280;73424;49.994;8.184;2024-03-23T01:22:13;99129.44;;;8.93;82.33
83488;BME280;73424;49.994;8.184;2024-03-23T01:24:39;99127.91;;;8.46;83.44
83488;BME280;73424;49.994;8.184;2024-03-23T01:27:04;99122.81;;;8.31;84.46
83488;BME280;73424;49.994;8.184;2024-03-23T01:29:29;99122.38;;;8.14;84.66
83488;BME280;73424;49.994;8.184;2024-03-23T01:31:55;99090.91;;;8.18;84.83
83488;BME280;73424;49.994;8.184;2024-03-23T01:34:20;99091.72;;;8.38;84.34
83488;BME280;73424;49.994;8.184;2024-03-23T01:36:46;99095.16;;;8.58;83.30
83488;BME280;73424;49.994;8.184;2024-03-23T01:39:12;99097.81;;;8.58;83.70
83488;BME280;73424;49.994;8.184;2024-03-23T01:41:37;99106.81;;;8.64;83.67
83488;BME280;73424;49.994;8.184;2024-03-23T01:44:07;99045.13;;;8.29;84.32
83488;BME280;73424;49.994;8.184;2024-03-23T01:46:33;99077.41;;;8.52;84.00
83488;BME280;73424;49.994;8.184;2024-03-23T01:48:58;99066.41;;;8.16;85.22
83488;BME280;73424;49.994;8.184;2024-03-23T01:51:24;99093.34;;;8.46;85.41
83488;BME280;73424;49.994;8.184;2024-03-23T01:53:50;99078.97;;;8.73;83.91
83488;BME280;73424;49.994;8.184;2024-03-23T01:56:16;99076.31;;;8.73;83.62
83488;BME280;73424;49.994;8.184;2024-03-23T01:58:41;99074.50;;;8.54;84.35
83488;BME280;73424;49.994;8.184;2024-03-23T02:01:06;99065.31;;;8.56;84.51
83488;BME280;73424;49.994;8.184;2024-03-23T02:03:31;99065.09;;;8.64;84.37
83488;BME280;73424;49.994;8.184;2024-03-23T02:05:57;99018.13;;;8.26;84.37
83488;BME280;73424;49.994;8.184;2024-03-23T02:08:23;99058.31;;;8.68;83.75
83488;BME280;73424;49.994;8.184;2024-03-23T02:10:50;99041.47;;;8.81;83.37
83488;BME280;73424;49.994;8.184;2024-03-23T02:13:16;99040.28;;;8.84;82.93
83488;BME280;73424;49.994;8.184;2024-03-23T02:15:41;99050.72;;;8.79;83.35
83488;BME280;73424;49.994;8.184;2024-03-23T02:18:07;99037.13;;;8.93;83.50
83488;BME280;73424;49.994;8.184;2024-03-23T02:20:34;99003.03;;;8.84;82.82
83488;BME280;73424;49.994;8.184;2024-03-23T02:22:59;99046.59;;;8.83;84.11
83488;BME280;73424;49.994;8.184;2024-03-23T02:25:25;99011.34;;;8.56;84.78
83488;BME280;73424;49.994;8.184;2024-03-23T02:27:50;99021.03;;;8.82;83.82
83488;BME280;73424;49.994;8.184;2024-03-23T02:30:15;99023.03;;;8.93;84.46
83488;BME280;73424;49.994;8.184;2024-03-23T02:32:41;99012.28;;;9.12;83.78
83488;BME280;73424;49.994;8.184;2024-03-23T02:35:06;98981.28;;;9.24;82.65
83488;BME280;73424;49.994;8.184;2024-03-23T02:37:31;98990.94;;;9.19;83.18
83488;BME280;73424;49.994;8.184;2024-03-23T02:39:58;98987.84;;;9.22;83.37
83488;BME280;73424;49.994;8.184;2024-03-23T02:42:23;98984.75;;;9.25;82.77
83488;BME280;73424;49.994;8.184;2024-03-23T02:44:48;98984.97;;;9.23;82.31
83488;BME280;73424;49.994;8.184;2024-03-23T02:47:14;98994.84;;;9.16;83.74
83488;BME280;73424;49.994;8.184;2024-03-23T02:49:39;98990.06;;;8.94;84.45
83488;BME280;73424;49.994;8.184;2024-03-23T02:52:04;99013.69;;;9.15;84.40
83488;BME280;73424;49.994;8.184;2024-03-23T02:54:30;99008.75;;;9.18;84.61
83488;BME280;73424;49.994;8.184;2024-03-23T02:56:55;98984.59;;;9.20;83.65
83488;BME280;73424;49.994;8.184;2024-03-23T02:59:20;98995.53;;;9.37;84.11
83488;BME280;73424;49.994;8.184;2024-03-23T03:01:45;98994.75;;;9.54;83.69
83488;BME280;73424;49.994;8.184;2024-03-23T03:04:11;98968.47;;;9.40;84.43
83488;BME280;73424;49.994;8.184;2024-03-23T03:06:36;98960.91;;;9.37;84.30
83488;BME280;73424;49.994;8.184;2024-03-23T03:09:02;98978.25;;;9.46;85.25
83488;BME280;73424;49.994;8.184;2024-03-23T03:11:27;98947.56;;;9.43;84.80
83488;BME280;73424;49.994;8.184;2024-03-23T03:13:52;98949.59;;;9.48;84.50
83488;BME280;73424;49.994;8.184;2024-03-23T03:16:18;98951.44;;;9.47;85.02
83488;BME280;73424;49.994;8.184;2024-03-23T03:18:43;98981.84;;;9.58;85.56
83488;BME280;73424;49.994;8.184;2024-03-23T03:21:11;98967.78;;;9.51;85.60
83488;BME280;73424;49.994;8.184;2024-03-23T03:23:37;98955.41;;;9.38;86.13
83488;BME280;73424;49.994;8.184;2024-03-23T03:26:03;98986.00;;;9.54;85.90
83488;BME280;73424;49.994;8.184;2024-03-23T03:28:28;98961.31;;;9.40;85.57
83488;BME280;73424;49.994;8.184;2024-03-23T03:30:56;98950.38;;;9.48;85.20
83488;BME280;73424;49.994;8.184;2024-03-23T03:33:21;98973.06;;;9.75;84.22
83488;BME280;73424;49.994;8.184;2024-03-23T03:35:46;98987.44;;;9.74;84.49
83488;BME280;73424;49.994;8.184;2024-03-23T03:38:12;98994.38;;;9.75;85.45
83488;BME280;73424;49.994;8.184;2024-03-23T03:40:37;99000.00;;;9.67;84.94
83488;BME280;73424;49.994;8.184;2024-03-23T03:43:02;99018.28;;;9.82;84.90
83488;BME280;73424;49.994;8.184;2024-03-23T03:45:28;99000.38;;;9.46;84.82
83488;BME280;73424;49.994;8.184;2024-03-23T03:47:53;99044.19;;;9.75;84.60
83488;BME280;73424;49.994;8.184;2024-03-23T03:50:19;99050.00;;;9.34;85.01
83488;BME280;73424;49.994;8.184;2024-03-23T03:52:44;99057.16;;;9.34;85.89
83488;BME280;73424;49.994;8.184;2024-03-23T03:55:14;99057.03;;;9.22;84.92
83488;BME280;73424;49.994;8.184;2024-03-23T03:57:39;99054.44;;;9.09;84.19
83488;BME280;73424;49.994;8.184;2024-03-23T04:00:06;99071.75;;;8.87;83.65
83488;BME280;73424;49.994;8.184;2024-03-23T04:02:31;99083.41;;;8.92;81.70
83488;BME280;73424;49.994;8.184;2024-03-23T04:04:56;99055.06;;;8.60;83.80
83488;BME280;73424;49.994;8.184;2024-03-23T04:07:22;99054.09;;;8.48;83.81
83488;BME280;73424;49.994;8.184;2024-03-23T04:09:48;99077.03;;;8.29;83.59
83488;BME280;73424;49.994;8.184;2024-03-23T04:12:13;99050.44;;;8.29;84.46
83488;BME280;73424;49.994;8.184;2024-03-23T04:14:39;99007.41;;;7.88;83.95
83488;BME280;73424;49.994;8.184;2024-03-23T04:17:04;99083.97;;;8.30;85.67
83488;BME280;73424;49.994;8.184;2024-03-23T04:19:29;99036.19;;;8.04;86.20
83488;BME280;73424;49.994;8.184;2024-03-23T04:21:54;99063.09;;;8.27;86.59
83488;BME280;73424;49.994;8.184;2024-03-23T04:24:20;99062.28;;;8.13;86.23
83488;BME280;73424;49.994;8.184;2024-03-23T04:26:47;99054.31;;;8.13;86.45
83488;BME280;73424;49.994;8.184;2024-03-23T04:29:13;99070.50;;;8.32;85.59
83488;BME280;73424;49.994;8.184;2024-03-23T04:31:38;99061.91;;;8.10;86.15
83488;BME280;73424;49.994;8.184;2024-03-23T04:34:04;99088.66;;;8.15;86.95
83488;BME280;73424;49.994;8.184;2024-03-23T04:36:29;99089.50;;;7.96;85.99
83488;BME280;73424;49.994;8.184;2024-03-23T04:38:56;99084.19;;;7.89;86.93
83488;BME280;73424;49.994;8.184;2024-03-23T04:41:22;99084.19;;;8.02;86.65
83488;BME280;73424;49.994;8.184;2024-03-23T04:43:47;99106.47;;;7.95;86.74
83488;BME280;73424;49.994;8.184;2024-03-23T04:46:12;99104.41;;;7.90;87.13
83488;BME280;73424;49.994;8.184;2024-03-23T04:48:37;99095.84;;;7.95;85.93
83488;BME280;73424;49.994;8.184;2024-03-23T04:51:03;99101.94;;;8.02;85.85
83488;BME280;73424;49.994;8.184;2024-03-23T04:53:29;99099.09;;;7.97;86.09
83488;BME280;73424;49.994;8.184;2024-03-23T04:55:57;99090.09;;;7.65;86.06
83488;BME280;73424;49.994;8.184;2024-03-23T04:58:24;99135.25;;;7.91;85.10
83488;BME280;73424;49.994;8.184;2024-03-23T05:00:56;99132.41;;;7.80;83.69
83488;BME280;73424;49.994;8.184;2024-03-23T05:03:22;99143.22;;;7.85;84.82
83488;BME280;73424;49.994;8.184;2024-03-23T05:05:48;99148.31;;;7.93;85.20
83488;BME280;73424;49.994;8.184;2024-03-23T05:08:14;99123.00;;;7.84;82.96
83488;BME280;73424;49.994;8.184;2024-03-23T05:10:41;99162.00;;;7.77;83.25
83488;BME280;73424;49.994;8.184;2024-03-23T05:13:06;99153.81;;;7.72;84.46
83488;BME280;73424;49.994;8.184;2024-03-23T05:15:31;99145.66;;;7.73;82.87
83488;BME280;73424;49.994;8.184;2024-03-23T05:17:57;99123.53;;;7.33;82.81
83488;BME280;73424;49.994;8.184;2024-03-23T05:20:22;99167.69;;;7.74;83.24
83488;BME280;73424;49.994;8.184;2024-03-23T05:22:47;99159.88;;;7.52;83.27
83488;BME280;73424;49.994;8.184;2024-03-23T05:25:13;99139.88;;;7.37;82.83
83488;BME280;73424;49.994;8.184;2024-03-23T05:27:38;99181.81;;;7.81;82.98
83488;BME280;73424;49.994;8.184;2024-03-23T05:30:04;99172.00;;;7.75;83.86
83488;BME280;73424;49.994;8.184;2024-03-23T05:32:30;99168.09;;;7.71;81.97
83488;BME280;73424;49.994;8.184;2024-03-23T05:34:56;99182.34;;;7.50;82.43
83488;BME280;73424;49.994;8.184;2024-03-23T05:37:22;99196.06;;;7.60;82.40
83488;BME280;73424;49.994;8.184;2024-03-23T05:39:48;99183.13;;;7.37;82.11
83488;BME280;73424;49.994;8.184;2024-03-23T05:42:18;99184.13;;;7.30;82.21
83488;BME280;73424;49.994;8.184;2024-03-23T05:44:46;99205.25;;;7.10;83.39
83488;BME280;73424;49.994;8.184;2024-03-23T05:47:12;99168.91;;;7.04;81.44
83488;BME280;73424;49.994;8.184;2024-03-23T05:49:40;99210.44;;;7.25;80.58
83488;BME280;73424;49.994;8.184;2024-03-23T05:52:06;99230.88;;;7.31;79.25
83488;BME280;73424;49.994;8.184;2024-03-23T05:54:32;99185.84;;;7.03;79.79
83488;BME280;73424;49.994;8.184;2024-03-23T05:56:57;99233.41;;;7.11;81.06
83488;BME280;73424;49.994;8.184;2024-03-23T05:59:22;99192.59;;;6.71;80.48
83488;BME280;73424;49.994;8.184;2024-03-23T06:01:48;99209.84;;;6.95;81.07
83488;BME280;73424;49.994;8.184;2024-03-23T06:04:13;99199.25;;;6.95;81.64
83488;BME280;73424;49.994;8.184;2024-03-23T06:06:39;99225.97;;;7.28;79.85
83488;BME280;73424;49.994;8.184;2024-03-23T06:09:04;99248.84;;;7.01;80.64
83488;BME280;73424;49.994;8.184;2024-03-23T06:11:29;99237.84;;;7.04;79.96
83488;BME280;73424;49.994;8.184;2024-03-23T06:13:55;99228.69;;;6.72;80.28
83488;BME280;73424;49.994;8.184;2024-03-23T06:16:20;99236.56;;;6.93;80.71
83488;BME280;73424;49.994;8.184;2024-03-23T06:18:49;99255.47;;;6.84;80.55
83488;BME280;73424;49.994;8.184;2024-03-23T06:21:14;99292.72;;;7.03;80.14
83488;BME280;73424;49.994;8.184;2024-03-23T06:23:41;99334.38;;;6.82;81.51
83488;BME280;73424;49.994;8.184;2024-03-23T06:26:06;99337.66;;;6.84;80.53
83488;BME280;73424;49.994;8.184;2024-03-23T06:28:31;99325.66;;;6.88;79.53
83488;BME280;73424;49.994;8.184;2024-03-23T06:30:57;99351.91;;;6.83;80.76
83488;BME280;73424;49.994;8.184;2024-03-23T06:33:22;99250.53;;;6.25;80.88
83488;BME280;73424;49.994;8.184;2024-03-23T06:35:51;99344.72;;;6.77;81.38
83488;BME280;73424;49.994;8.184;2024-03-23T06:38:17;99346.38;;;6.78;80.40
83488;BME280;73424;49.994;8.184;2024-03-23T06:40:43;99347.78;;;6.52;80.23
83488;BME280;73424;49.994;8.184;2024-03-23T06:43:15;99344.16;;;6.81;81.17
83488;BME280;73424;49.994;8.184;2024-03-23T06:45:40;99369.22;;;7.00;79.68
83488;BME280;73424;49.994;8.184;2024-03-23T06:48:06;99323.41;;;6.64;80.55
83488;BME280;73424;49.994;8.184;2024-03-23T06:50:33;99370.75;;;6.88;78.72
83488;BME280;73424;49.994;8.184;2024-03-23T06:52:58;99367.41;;;7.07;80.17
83488;BME280;73424;49.994;8.184;2024-03-23T06:55:24;99318.06;;;7.06;78.16
83488;BME280;73424;49.994;8.184;2024-03-23T06:57:51;99372.53;;;7.36;78.38
83488;BME280;73424;49.994;8.184;2024-03-23T07:00:17;99371.72;;;7.36;77.89
83488;BME280;73424;49.994;8.184;2024-03-23T07:02:42;99362.19;;;7.48;77.89
83488;BME280;73424;49.994;8.184;2024-03-23T07:05:09;99364.53;;;7.71;75.78
83488;BME280;73424;49.994;8.184;2024-03-23T07:07:34;99352.69;;;7.66;74.88
83488;BME280;73424;49.994;8.184;2024-03-23T07:10:00;99396.56;;;7.62;76.24
83488;BME280;73424;49.994;8.184;2024-03-23T07:12:25;99391.19;;;7.22;75.91
83488;BME280;73424;49.994;8.184;2024-03-23T07:14:50;99350.28;;;6.61;76.73
83488;BME280;73424;49.994;8.184;2024-03-23T07:17:15;99418.50;;;7.78;75.22
83488;BME280;73424;49.994;8.184;2024-03-23T07:19:43;99431.72;;;7.37;76.12
83488;BME280;73424;49.994;8.184;2024-03-23T07:22:08;99386.19;;;7.05;76.60
83488;BME280;73424;49.994;8.184;2024-03-23T07:24:34;99417.84;;;7.13;77.07
83488;BME280;73424;49.994;8.184;2024-03-23T07:26:59;99435.88;;;7.46;76.26
83488;BME280;73424;49.994;8.184;2024-03-23T07:29:24;99446.00;;;7.36;77.22
83488;BME280;73424;49.994;8.184;2024-03-23T07:31:50;99443.56;;;7.13;77.78
83488;BME280;73424;49.994;8.184;2024-03-23T07:34:15;99455.22;;;7.19;78.05
83488;BME280;73424;49.994;8.184;2024-03-23T07:36:40;99458.16;;;7.02;78.67
83488;BME280;73424;49.994;8.184;2024-03-23T07:39:06;99436.50;;;6.78;79.83
83488;BME280;73424;49.994;8.184;2024-03-23T07:41:33;99427.34;;;6.80;79.11
83488;BME280;73424;49.994;8.184;2024-03-23T07:43:58;99483.59;;;7.39;77.41
83488;BME280;73424;49.994;8.184;2024-03-23T07:46:23;99430.84;;;7.30;76.57
83488;BME280;73424;49.994;8.184;2024-03-23T07:48:50;99464.19;;;7.66;76.30
83488;BME280;73424;49.994;8.184;2024-03-23T07:51:25;99452.31;;;7.62;76.37
83488;BME280;73424;49.994;8.184;2024-03-23T07:53:51;99453.25;;;7.76;75.53
83488;BME280;73424;49.994;8.184;2024-03-23T07:56:17;99462.38;;;7.39;76.58
83488;BME280;73424;49.994;8.184;2024-03-23T07:58:44;99484.16;;;7.62;76.93
83488;BME280;73424;49.994;8.184;2024-03-23T08:01:14;99465.78;;;7.61;75.08
83488;BME280;73424;49.994;8.184;2024-03-23T08:03:45;99489.38;;;7.49;75.68
83488;BME280;73424;49.994;8.184;2024-03-23T08:06:18;99474.41;;;7.97;74.15
83488;BME280;73424;49.994;8.184;2024-03-23T08:08:46;99492.66;;;8.13;72.70
83488;BME280;73424;49.994;8.184;2024-03-23T08:11:12;99472.28;;;7.86;72.66
83488;BME280;73424;49.994;8.184;2024-03-23T08:13:39;99495.56;;;8.59;71.59
83488;BME280;73424;49.994;8.184;2024-03-23T08:16:05;99452.34;;;8.31;71.15
83488;BME280;73424;49.994;8.184;2024-03-23T08:18:30;99493.63;;;8.88;70.08
83488;BME280;73424;49.994;8.184;2024-03-23T08:21:04;99493.31;;;8.56;70.74
83488;BME280;73424;49.994;8.184;2024-03-23T08:23:31;99483.81;;;8.34;71.21
83488;BME280;73424;49.994;8.184;2024-03-23T08:26:00;99483.25;;;8.11;71.36
83488;BME280;73424;49.994;8.184;2024-03-23T08:28:27;99452.94;;;7.99;70.34
83488;BME280;73424;49.994;8.184;2024-03-23T08:30:53;99488.53;;;8.39;70.81
83488;BME280;73424;49.994;8.184;2024-03-23T08:33:18;99472.22;;;8.48;69.60
83488;BME280;73424;49.994;8.184;2024-03-23T08:36:04;99436.41;;;8.44;69.07
83488;BME280;73424;49.994;8.184;2024-03-23T08:38:30;99433.63;;;8.65;69.51
83488;BME280;73424;49.994;8.184;2024-03-23T08:40:59;99453.25;;;8.64;68.42
83488;BME280;73424;49.994;8.184;2024-03-23T08:43:26;99459.88;;;8.95;67.54
83488;BME280;73424;49.994;8.184;2024-03-23T08:45:51;99440.81;;;8.78;67.65
83488;BME280;73424;49.994;8.184;2024-03-23T08:48:17;99418.09;;;8.69;65.82
83488;BME280;73424;49.994;8.184;2024-03-23T08:50:43;99485.69;;;9.01;66.45
83488;BME280;73424;49.994;8.184;2024-03-23T08:53:08;99432.06;;;9.30;66.99
83488;BME280;73424;49.994;8.184;2024-03-23T08:55:34;99414.03;;;8.80;66.38
83488;BME280;73424;49.994;8.184;2024-03-23T08:58:00;99458.75;;;8.56;65.42
83488;BME280;73424;49.994;8.184;2024-03-23T09:00:26;99390.25;;;8.58;65.05
83488;BME280;73424;49.994;8.184;2024-03-23T09:02:51;99490.22;;;9.66;63.15
83488;BME280;73424;49.994;8.184;2024-03-23T09:05:16;99496.56;;;9.78;63.56
83488;BME280;73424;49.994;8.184;2024-03-23T09:07:41;99440.06;;;9.17;61.27
83488;BME280;73424;49.994;8.184;2024-03-23T09:10:07;99497.59;;;9.44;62.11
83488;BME280;73424;49.994;8.184;2024-03-23T09:12:32;99478.94;;;9.64;62.58
83488;BME280;73424;49.994;8.184;2024-03-23T09:14:58;99470.94;;;9.90;60.21
83488;BME280;73424;49.994;8.184;2024-03-23T09:17:23;99458.66;;;9.82;59.87
83488;BME280;73424;49.994;8.184;2024-03-23T09:19:48;99371.88;;;9.22;60.14
83488;BME280;73424;49.994;8.184;2024-03-23T09:22:14;99449.63;;;9.97;58.78
83488;BME280;73424;49.994;8.184;2024-03-23T09:24:40;99484.03;;;10.18;57.54
83488;BME280;73424;49.994;8.184;2024-03-23T09:27:05;99461.00;;;10.36;56.44
83488;BME280;73424;49.994;8.184;2024-03-23T09:29:30;99478.75;;;10.56;54.59
83488;BME280;73424;49.994;8.184;2024-03-23T09:31:56;99469.53;;;10.89;53.93
83488;BME280;73424;49.994;8.184;2024-03-23T09:34:21;99486.16;;;10.54;53.63
83488;BME280;73424;49.994;8.184;2024-03-23T09:36:47;99470.28;;;10.65;52.19
83488;BME280;73424;49.994;8.184;2024-03-23T09:39:12;99501.56;;;10.45;51.22
83488;BME280;73424;49.994;8.184;2024-03-23T09:41:39;99491.22;;;10.68;52.15
83488;BME280;73424;49.994;8.184;2024-03-23T09:44:05;99500.19;;;10.80;52.72
83488;BME280;73424;49.994;8.184;2024-03-23T09:46:31;99510.13;;;10.60;51.78
83488;BME280;73424;49.994;8.184;2024-03-23T09:49:00;99408.00;;;9.96;51.60
83488;BME280;73424;49.994;8.184;2024-03-23T09:51:25;99476.88;;;10.63;52.88
83488;BME280;73424;49.994;8.184;2024-03-23T09:53:51;99483.75;;;10.83;49.86
83488;BME280;73424;49.994;8.184;2024-03-23T09:56:17;99457.38;;;11.00;51.16
83488;BME280;73424;49.994;8.184;2024-03-23T09:58:42;99465.69;;;10.85;51.48
83488;BME280;73424;49.994;8.184;2024-03-23T10:01:08;99497.69;;;10.34;52.04
83488;BME280;73424;49.994;8.184;2024-03-23T10:03:42;99485.91;;;10.62;52.98
83488;BME280;73424;49.994;8.184;2024-03-23T10:06:08;99501.69;;;11.01;52.62
83488;BME280;73424;49.994;8.184;2024-03-23T10:08:33;99521.56;;;10.74;51.38
83488;BME280;73424;49.994;8.184;2024-03-23T10:11:13;99481.13;;;10.70;50.37
83488;BME280;73424;49.994;8.184;2024-03-23T10:13:41;99503.25;;;10.33;50.43
83488;BME280;73424;49.994;8.184;2024-03-23T10:16:07;99541.81;;;9.25;55.04
83488;BME280;73424;49.994;8.184;2024-03-23T10:18:36;99598.13;;;8.13;63.01
83488;BME280;73424;49.994;8.184;2024-03-23T10:23:30;99620.03;;;6.80;71.69
83488;BME280;73424;49.994;8.184;2024-03-23T10:26:12;99611.03;;;6.60;70.73
83488;BME280;73424;49.994;8.184;2024-03-23T10:28:50;99573.47;;;6.56;71.06
83488;BME280;73424;49.994;8.184;2024-03-23T10:31:16;99577.16;;;6.91;71.10
83488;BME280;73424;49.994;8.184;2024-03-23T10:33:46;99553.72;;;6.44;70.11
83488;BME280;73424;49.994;8.184;2024-03-23T10:36:12;99584.94;;;6.78;69.07
83488;BME280;73424;49.994;8.184;2024-03-23T10:38:40;99553.88;;;6.72;68.81
83488;BME280;73424;49.994;8.184;2024-03-23T10:41:06;99582.13;;;7.15;68.59
83488;BME280;73424;49.994;8.184;2024-03-23T10:43:33;99557.44;;;7.15;69.31
83488;BME280;73424;49.994;8.184;2024-03-23T10:45:58;99479.63;;;6.50;66.73
83488;BME280;73424;49.994;8.184;2024-03-23T10:48:23;99578.00;;;7.12;67.00
83488;BME280;73424;49.994;8.184;2024-03-23T10:50:49;99526.53;;;7.28;68.83
83488;BME280;73424;49.994;8.184;2024-03-23T10:53:15;99573.28;;;7.72;69.41
83488;BME280;73424;49.994;8.184;2024-03-23T10:55:42;99568.09;;;7.85;69.09
83488;BME280;73424;49.994;8.184;2024-03-23T10:58:10;99542.97;;;7.17;71.14
83488;BME280;73424;49.994;8.184;2024-03-23T11:00:38;99474.63;;;6.77;70.67
83488;BME280;73424;49.994;8.184;2024-03-23T11:03:29;99556.63;;;7.35;70.86
83488;BME280;73424;49.994;8.184;2024-03-23T11:05:55;99539.09;;;6.98;70.04
83488;BME280;73424;49.994;8.184;2024-03-23T11:08:53;99524.16;;;7.33;69.96
83488;BME280;73424;49.994;8.184;2024-03-23T11:11:20;99525.84;;;7.41;70.01
83488;BME280;73424;49.994;8.184;2024-03-23T11:13:53;99529.44;;;8.10;66.05
83488;BME280;73424;49.994;8.184;2024-03-23T11:16:23;99521.16;;;8.60;64.94
83488;BME280;73424;49.994;8.184;2024-03-23T11:18:49;99514.97;;;9.14;63.81
83488;BME280;73424;49.994;8.184;2024-03-23T11:21:52;99519.53;;;8.66;62.27
83488;BME280;73424;49.994;8.184;2024-03-23T11:24:21;99506.16;;;9.26;60.05
83488;BME280;73424;49.994;8.184;2024-03-23T11:26:50;99498.41;;;9.77;61.00
83488;BME280;73424;49.994;8.184;2024-03-23T11:29:17;99501.25;;;9.23;60.54
83488;BME280;73424;49.994;8.184;2024-03-23T11:31:49;99504.56;;;9.39;61.11
83488;BME280;73424;49.994;8.184;2024-03-23T11:34:19;99467.66;;;9.09;59.34
83488;BME280;73424;49.994;8.184;2024-03-23T11:36:45;99503.69;;;8.99;59.97
83488;BME280;73424;49.994;8.184;2024-03-23T11:39:18;99472.41;;;9.14;59.56
83488;BME280;73424;49.994;8.184;2024-03-23T11:41:51;99495.53;;;9.85;59.21
83488;BME280;73424;49.994;8.184;2024-03-23T11:44:21;99471.56;;;9.85;59.20
83488;BME280;73424;49.994;8.184;2024-03-23T11:46:49;99446.47;;;10.19;57.20
83488;BME280;73424;49.994;8.184;2024-03-23T11:49:25;99474.13;;;10.31;58.61
83488;BME280;73424;49.994;8.184;2024-03-23T11:51:51;99459.78;;;10.26;58.61
83488;BME280;73424;49.994;8.184;2024-03-23T11:54:21;99427.69;;;10.52;58.59
83488;BME280;73424;49.994;8.184;2024-03-23T11:57:00;99448.91;;;10.78;56.79
83488;BME280;73424;49.994;8.184;2024-03-23T11:59:45;99406.34;;;10.52;55.63
83488;BME280;73424;49.994;8.184;2024-03-23T12:02:11;99455.81;;;10.86;56.58
83488;BME280;73424;49.994;8.184;2024-03-23T12:04:40;99416.22;;;10.83;55.66
83488;BME280;73424;49.994;8.184;2024-03-23T12:07:19;99415.06;;;11.28;54.95
83488;BME280;73424;49.994;8.184;2024-03-23T12:09:45;99403.53;;;11.77;53.47
83488;BME280;73424;49.994;8.184;2024-03-23T12:12:14;99405.03;;;11.73;52.61
83488;BME280;73424;49.994;8.184;2024-03-23T12:14:41;99379.34;;;11.47;49.26
83488;BME280;73424;49.994;8.184;2024-03-23T12:17:13;99360.13;;;10.89;48.51
83488;BME280;73424;49.994;8.184;2024-03-23T12:19:40;99396.88;;;11.19;47.97
83488;BME280;73424;49.994;8.184;2024-03-23T12:22:07;99373.56;;;11.51;47.87
83488;BME280;73424;49.994;8.184;2024-03-23T12:24:32;99359.94;;;11.59;47.96
83488;BME280;73424;49.994;8.184;2024-03-23T12:27:04;99318.16;;;11.46;48.17
83488;BME280;73424;49.994;8.184;2024-03-23T12:29:31;99396.88;;;12.05;47.01
83488;BME280;73424;49.994;8.184;2024-03-23T12:31:59;99349.41;;;11.21;46.67
83488;BME280;73424;49.994;8.184;2024-03-23T12:34:25;99370.72;;;11.03;48.51
83488;BME280;73424;49.994;8.184;2024-03-23T12:36:50;99369.34;;;10.93;49.00
83488;BME280;73424;49.994;8.184;2024-03-23T12:39:15;99450.34;;;11.06;50.23
83488;BME280;73424;49.994;8.184;2024-03-23T12:41:41;99493.84;;;9.06;60.29
83488;BME280;73424;49.994;8.184;2024-03-23T12:44:06;99516.31;;;7.74;69.62
83488;BME280;73424;49.994;8.184;2024-03-23T12:46:33;99556.88;;;6.83;76.27
83488;BME280;73424;49.994;8.184;2024-03-23T12:48:59;99538.34;;;6.69;78.47
83488;BME280;73424;49.994;8.184;2024-03-23T12:51:24;99548.69;;;6.49;78.73
83488;BME280;73424;49.994;8.184;2024-03-23T12:53:50;99562.97;;;6.48;78.52
83488;BME280;73424;49.994;8.184;2024-03-23T12:56:15;99551.91;;;6.44;79.56
83488;BME280;73424;49.994;8.184;2024-03-23T12:58:41;99524.91;;;7.06;79.40
83488;BME280;73424;49.994;8.184;2024-03-23T13:01:06;99485.09;;;7.48;77.95
83488;BME280;73424;49.994;8.184;2024-03-23T13:03:31;99514.53;;;7.53;77.05
83488;BME280;73424;49.994;8.184;2024-03-23T13:05:57;99488.38;;;7.29;78.34
83488;BME280;73424;49.994;8.184;2024-03-23T13:08:22;99500.44;;;7.32;78.63
83488;BME280;73424;49.994;8.184;2024-03-23T13:10:51;99474.94;;;7.31;77.92
83488;BME280;73424;49.994;8.184;2024-03-23T13:13:17;99493.78;;;7.91;78.07
83488;BME280;73424;49.994;8.184;2024-03-23T13:15:42;99476.72;;;8.48;75.55
83488;BME280;73424;49.994;8.184;2024-03-23T13:18:07;99458.91;;;8.42;73.51
83488;BME280;73424;49.994;8.184;2024-03-23T13:20:35;99488.31;;;8.34;73.54
83488;BME280;73424;49.994;8.184;2024-03-23T13:23:00;99500.28;;;8.57;71.88
83488;BME280;73424;49.994;8.184;2024-03-23T13:25:26;99467.69;;;8.08;71.56
83488;BME280;73424;49.994;8.184;2024-03-23T13:27:51;99492.09;;;8.18;72.19
83488;BME280;73424;49.994;8.184;2024-03-23T13:30:16;99401.44;;;7.93;72.73
83488;BME280;73424;49.994;8.184;2024-03-23T13:32:41;99455.09;;;8.23;71.47
83488;BME280;73424;49.994;8.184;2024-03-23T13:35:07;99450.38;;;8.59;71.54
83488;BME280;73424;49.994;8.184;2024-03-23T13:37:32;99477.75;;;8.53;71.61
83488;BME280;73424;49.994;8.184;2024-03-23T13:39:57;99479.16;;;9.23;69.47
83488;BME280;73424;49.994;8.184;2024-03-23T13:42:23;99466.44;;;9.51;66.77
83488;BME280;73424;49.994;8.184;2024-03-23T13:44:51;99425.44;;;9.92;67.56
83488;BME280;73424;49.994;8.184;2024-03-23T13:47:16;99459.47;;;9.90;63.76
83488;BME280;73424;49.994;8.184;2024-03-23T13:49:41;99456.63;;;9.25;64.81
83488;BME280;73424;49.994;8.184;2024-03-23T13:52:06;99439.22;;;9.43;64.33
83488;BME280;73424;49.994;8.184;2024-03-23T13:54:32;99446.38;;;9.75;62.53
83488;BME280;73424;49.994;8.184;2024-03-23T13:56:57;99430.34;;;9.81;63.55
83488;BME280;73424;49.994;8.184;2024-03-23T13:59:23;99406.19;;;9.76;61.35
83488;BME280;73424;49.994;8.184;2024-03-23T14:01:49;99446.31;;;10.01;60.21
83488;BME280;73424;49.994;8.184;2024-03-23T14:04:15;99418.50;;;9.84;58.88